sensor_id;sensor_type;location;lat;lon;timestamp;P1;durP1;ratioP1;P2;durP2;ratioP2
26718;SDS011;14326;50.794;6.060;2024-03-07T00:01:02;37.22;;;18.95;;
26718;SDS011;14326;50.794;6.060;2024-03-07T00:03:29;31.90;;;17.13;;
26718;SDS011;14326;50.794;6.060;2024-03-07T00:05:55;36.47;;;18.15;;
26718;SDS011;14326;50.794;6.060;2024-03-07T00:08:22;37.00;;;17.65;;
26718;SDS011;14326;50.794;6.060;2024-03-07T00:10:49;40.40;;;17.88;;
26718;SDS011;14326;50.794;6.060;2024-03-07T00:13:15;35.35;;;17.73;;
26718;SDS011;14326;50.794;6.060;2024-03-07T00:15:43;37.47;;;18.42;;
26718;SDS011;14326;50.794;6.060;2024-03-07T00:18:10;41.17;;;19.15;;
26718;SDS011;14326;50.794;6.060;2024-03-07T00:20:36;37.67;;;18.23;;
26718;SDS011;14326;50.794;6.060;2024-03-07T00:23:03;41.13;;;21.20;;
26718;SDS011;14326;50.794;6.060;2024-03-07T00:25:30;39.85;;;20.00;;
26718;SDS011;14326;50.794;6.060;2024-03-07T00:27:56;40.42;;;19.55;;
26718;SDS011;14326;50.794;6.060;2024-03-07T00:30:27;41.05;;;20.33;;
26718;SDS011;14326;50.794;6.060;2024-03-07T00:32:56;39.83;;;19.42;;
26718;SDS011;14326;50.794;6.060;2024-03-07T00:35:23;43.15;;;20.73;;
26718;SDS011;14326;50.794;6.060;2024-03-07T00:37:50;44.88;;;21.13;;
26718;SDS011;14326;50.794;6.060;2024-03-07T00:40:16;44.83;;;20.98;;
26718;SDS011;14326;50.794;6.060;2024-03-07T00:42:43;41.08;;;22.00;;
26718;SDS011;14326;50.794;6.060;2024-03-07T00:45:09;41.95;;;20.92;;
26718;SDS011;14326;50.794;6.060;2024-03-07T00:47:36;41.33;;;21.30;;
26718;SDS011;14326;50.794;6.060;2024-03-07T00:50:05;46.00;;;21.60;;
26718;SDS011;14326;50.794;6.060;2024-03-07T00:52:33;49.38;;;23.38;;
26718;SDS011;14326;50.794;6.060;2024-03-07T00:55:00;43.88;;;22.20;;
26718;SDS011;14326;50.794;6.060;2024-03-07T00:57:26;49.50;;;24.15;;
26718;SDS011;14326;50.794;6.060;2024-03-07T00:59:54;51.22;;;23.25;;
26718;SDS011;14326;50.794;6.060;2024-03-07T01:02:21;49.20;;;24.52;;
26718;SDS011;14326;50.794;6.060;2024-03-07T01:04:48;47.47;;;23.02;;
26718;SDS011;14326;50.794;6.060;2024-03-07T01:07:16;53.40;;;24.58;;
26718;SDS011;14326;50.794;6.060;2024-03-07T01:09:42;49.03;;;23.60;;
26718;SDS011;14326;50.794;6.060;2024-03-07T01:12:09;48.58;;;23.15;;
26718;SDS011;14326;50.794;6.060;2024-03-07T01:14:36;54.97;;;25.60;;
26718;SDS011;14326;50.794;6.060;2024-03-07T01:17:03;52.13;;;23.77;;
26718;SDS011;14326;50.794;6.060;2024-03-07T01:19:32;50.42;;;24.67;;
26718;SDS011;14326;50.794;6.060;2024-03-07T01:21:58;51.67;;;24.35;;
26718;SDS011;14326;50.794;6.060;2024-03-07T01:24:26;49.42;;;24.05;;
26718;SDS011;14326;50.794;6.060;2024-03-07T01:26:53;51.80;;;24.08;;
26718;SDS011;14326;50.794;6.060;2024-03-07T01:29:20;50.58;;;24.70;;
26718;SDS011;14326;50.794;6.060;2024-03-07T01:31:47;53.25;;;25.35;;
26718;SDS011;14326;50.794;6.060;2024-03-07T01:34:14;55.17;;;26.25;;
26718;SDS011;14326;50.794;6.060;2024-03-07T01:36:41;51.13;;;24.48;;
26718;SDS011;14326;50.794;6.060;2024-03-07T01:39:07;57.45;;;26.65;;
26718;SDS011;14326;50.794;6.060;2024-03-07T01:41:37;55.63;;;25.20;;
26718;SDS011;14326;50.794;6.060;2024-03-07T01:44:03;58.92;;;27.65;;
26718;SDS011;14326;50.794;6.060;2024-03-07T01:46:31;57.08;;;24.90;;
26718;SDS011;14326;50.794;6.060;2024-03-07T01:48:58;57.65;;;27.02;;
26718;SDS011;14326;50.794;6.060;2024-03-07T01:51:25;61.75;;;27.75;;
26718;SDS011;14326;50.794;6.060;2024-03-07T01:53:53;62.03;;;29.15;;
26718;SDS011;14326;50.794;6.060;2024-03-07T01:56:20;57.50;;;27.73;;
26718;SDS011;14326;50.794;6.060;2024-03-07T01:58:49;60.33;;;28.83;;
26718;SDS011;14326;50.794;6.060;2024-03-07T02:04:24;59.15;;;28.13;;
26718;SDS011;14326;50.794;6.060;2024-03-07T02:06:51;59.00;;;26.35;;
26718;SDS011;14326;50.794;6.060;2024-03-07T02:09:18;56.25;;;27.15;;
26718;SDS011;14326;50.794;6.060;2024-03-07T02:11:46;57.42;;;27.00;;
26718;SDS011;14326;50.794;6.060;2024-03-07T02:14:13;59.45;;;26.90;;
26718;SDS011;14326;50.794;6.060;2024-03-07T02:16:40;52.92;;;25.70;;
26718;SDS011;14326;50.794;6.060;2024-03-07T02:19:07;56.03;;;27.17;;
26718;SDS011;14326;50.794;6.060;2024-03-07T02:21:37;57.03;;;27.17;;
26718;SDS011;14326;50.794;6.060;2024-03-07T02:24:03;54.45;;;24.75;;
26718;SDS011;14326;50.794;6.060;2024-03-07T02:26:30;56.55;;;26.40;;
26718;SDS011;14326;50.794;6.060;2024-03-07T02:28:57;54.13;;;27.05;;
26718;SDS011;14326;50.794;6.060;2024-03-07T02:31:24;61.72;;;28.67;;
26718;SDS011;14326;50.794;6.060;2024-03-07T02:34:00;55.92;;;26.83;;
26718;SDS011;14326;50.794;6.060;2024-03-07T02:36:26;60.42;;;27.60;;
26718;SDS011;14326;50.794;6.060;2024-03-07T02:38:54;57.78;;;28.02;;
26718;SDS011;14326;50.794;6.060;2024-03-07T02:41:21;57.80;;;27.10;;
26718;SDS011;14326;50.794;6.060;2024-03-07T02:43:47;56.85;;;25.90;;
26718;SDS011;14326;50.794;6.060;2024-03-07T02:46:14;55.33;;;27.60;;
26718;SDS011;14326;50.794;6.060;2024-03-07T02:48:41;54.45;;;25.38;;
26718;SDS011;14326;50.794;6.060;2024-03-07T02:51:09;55.40;;;25.65;;
26718;SDS011;14326;50.794;6.060;2024-03-07T02:53:36;53.28;;;25.25;;
26718;SDS011;14326;50.794;6.060;2024-03-07T02:56:05;58.60;;;26.52;;
26718;SDS011;14326;50.794;6.060;2024-03-07T02:58:33;60.78;;;26.60;;
26718;SDS011;14326;50.794;6.060;2024-03-07T03:00:59;55.97;;;26.42;;
26718;SDS011;14326;50.794;6.060;2024-03-07T03:03:28;58.55;;;27.10;;
26718;SDS011;14326;50.794;6.060;2024-03-07T03:05:56;61.40;;;28.00;;
26718;SDS011;14326;50.794;6.060;2024-03-07T03:08:23;57.13;;;26.35;;
26718;SDS011;14326;50.794;6.060;2024-03-07T03:10:50;60.45;;;28.42;;
26718;SDS011;14326;50.794;6.060;2024-03-07T03:13:18;54.55;;;25.58;;
26718;SDS011;14326;50.794;6.060;2024-03-07T03:15:45;59.17;;;27.67;;
26718;SDS011;14326;50.794;6.060;2024-03-07T03:18:12;58.83;;;27.75;;
26718;SDS011;14326;50.794;6.060;2024-03-07T03:20:38;61.33;;;27.95;;
26718;SDS011;14326;50.794;6.060;2024-03-07T03:23:06;57.15;;;27.45;;
26718;SDS011;14326;50.794;6.060;2024-03-07T03:25:36;60.47;;;26.42;;
26718;SDS011;14326;50.794;6.060;2024-03-07T03:28:03;61.92;;;28.20;;
26718;SDS011;14326;50.794;6.060;2024-03-07T03:30:32;57.28;;;27.00;;
26718;SDS011;14326;50.794;6.060;2024-03-07T03:32:59;66.80;;;30.00;;
26718;SDS011;14326;50.794;6.060;2024-03-07T03:35:26;64.15;;;29.75;;
26718;SDS011;14326;50.794;6.060;2024-03-07T03:37:53;56.67;;;27.35;;
26718;SDS011;14326;50.794;6.060;2024-03-07T03:40:19;66.50;;;28.85;;
26718;SDS011;14326;50.794;6.060;2024-03-07T03:42:46;69.97;;;31.08;;
26718;SDS011;14326;50.794;6.060;2024-03-07T03:45:13;67.13;;;30.23;;
26718;SDS011;14326;50.794;6.060;2024-03-07T03:47:42;69.10;;;31.20;;
26718;SDS011;14326;50.794;6.060;2024-03-07T03:50:09;71.63;;;31.40;;
26718;SDS011;14326;50.794;6.060;2024-03-07T03:52:37;68.60;;;29.60;;
26718;SDS011;14326;50.794;6.060;2024-03-07T03:55:05;71.60;;;31.70;;
26718;SDS011;14326;50.794;6.060;2024-03-07T03:57:32;68.40;;;30.27;;
26718;SDS011;14326;50.794;6.060;2024-03-07T03:59:59;64.55;;;29.42;;
26718;SDS011;14326;50.794;6.060;2024-03-07T04:05:24;63.85;;;29.65;;
26718;SDS011;14326;50.794;6.060;2024-03-07T04:07:50;74.80;;;32.53;;
26718;SDS011;14326;50.794;6.060;2024-03-07T04:10:17;72.25;;;31.42;;
26718;SDS011;14326;50.794;6.060;2024-03-07T04:12:44;70.28;;;31.17;;
26718;SDS011;14326;50.794;6.060;2024-03-07T04:15:11;76.75;;;33.10;;
26718;SDS011;14326;50.794;6.060;2024-03-07T04:17:41;73.93;;;31.60;;
26718;SDS011;14326;50.794;6.060;2024-03-07T04:20:09;71.47;;;32.85;;
26718;SDS011;14326;50.794;6.060;2024-03-07T04:22:39;74.88;;;34.13;;
26718;SDS011;14326;50.794;6.060;2024-03-07T04:25:06;84.57;;;36.05;;
26718;SDS011;14326;50.794;6.060;2024-03-07T04:27:35;81.05;;;35.25;;
26718;SDS011;14326;50.794;6.060;2024-03-07T04:30:05;76.90;;;34.15;;
26718;SDS011;14326;50.794;6.060;2024-03-07T04:32:34;79.30;;;34.90;;
26718;SDS011;14326;50.794;6.060;2024-03-07T04:35:02;82.95;;;36.00;;
26718;SDS011;14326;50.794;6.060;2024-03-07T04:37:32;82.82;;;35.42;;
26718;SDS011;14326;50.794;6.060;2024-03-07T04:40:03;80.97;;;34.00;;
26718;SDS011;14326;50.794;6.060;2024-03-07T04:42:36;72.40;;;33.92;;
26718;SDS011;14326;50.794;6.060;2024-03-07T04:45:02;73.15;;;33.60;;
26718;SDS011;14326;50.794;6.060;2024-03-07T04:47:30;69.03;;;33.38;;
26718;SDS011;14326;50.794;6.060;2024-03-07T04:49:57;74.13;;;31.88;;
26718;SDS011;14326;50.794;6.060;2024-03-07T04:52:23;70.60;;;32.70;;
26718;SDS011;14326;50.794;6.060;2024-03-07T04:54:50;66.57;;;32.13;;
26718;SDS011;14326;50.794;6.060;2024-03-07T04:57:18;72.38;;;31.23;;
26718;SDS011;14326;50.794;6.060;2024-03-07T04:59:44;69.88;;;30.33;;
26718;SDS011;14326;50.794;6.060;2024-03-07T05:02:11;69.60;;;31.77;;
26718;SDS011;14326;50.794;6.060;2024-03-07T05:04:38;74.18;;;32.08;;
26718;SDS011;14326;50.794;6.060;2024-03-07T05:07:05;68.43;;;31.67;;
26718;SDS011;14326;50.794;6.060;2024-03-07T05:09:31;72.40;;;33.72;;
26718;SDS011;14326;50.794;6.060;2024-03-07T05:11:58;70.32;;;33.08;;
26718;SDS011;14326;50.794;6.060;2024-03-07T05:14:26;74.25;;;34.63;;
26718;SDS011;14326;50.794;6.060;2024-03-07T05:16:53;74.53;;;32.03;;
26718;SDS011;14326;50.794;6.060;2024-03-07T05:19:31;68.50;;;32.55;;
26718;SDS011;14326;50.794;6.060;2024-03-07T05:21:58;73.03;;;33.70;;
26718;SDS011;14326;50.794;6.060;2024-03-07T05:24:25;74.10;;;32.63;;
26718;SDS011;14326;50.794;6.060;2024-03-07T05:26:52;77.95;;;34.30;;
26718;SDS011;14326;50.794;6.060;2024-03-07T05:29:19;81.60;;;35.45;;
26718;SDS011;14326;50.794;6.060;2024-03-07T05:31:47;78.88;;;33.67;;
26718;SDS011;14326;50.794;6.060;2024-03-07T05:34:14;74.65;;;32.38;;
26718;SDS011;14326;50.794;6.060;2024-03-07T05:36:44;57.90;;;25.85;;
26718;SDS011;14326;50.794;6.060;2024-03-07T05:39:11;73.65;;;32.40;;
26718;SDS011;14326;50.794;6.060;2024-03-07T05:41:38;77.30;;;33.00;;
26718;SDS011;14326;50.794;6.060;2024-03-07T05:44:05;74.70;;;31.95;;
26718;SDS011;14326;50.794;6.060;2024-03-07T05:46:34;73.28;;;32.67;;
26718;SDS011;14326;50.794;6.060;2024-03-07T05:49:04;74.15;;;32.83;;
26718;SDS011;14326;50.794;6.060;2024-03-07T05:51:30;74.68;;;34.03;;
26718;SDS011;14326;50.794;6.060;2024-03-07T05:53:57;81.57;;;34.30;;
26718;SDS011;14326;50.794;6.060;2024-03-07T05:56:23;81.05;;;34.45;;
26718;SDS011;14326;50.794;6.060;2024-03-07T05:58:49;76.40;;;33.88;;
26718;SDS011;14326;50.794;6.060;2024-03-07T06:01:16;72.55;;;32.13;;
26718;SDS011;14326;50.794;6.060;2024-03-07T06:03:43;86.90;;;33.75;;
26718;SDS011;14326;50.794;6.060;2024-03-07T06:06:11;78.63;;;34.78;;
26718;SDS011;14326;50.794;6.060;2024-03-07T06:08:38;79.78;;;33.65;;
26718;SDS011;14326;50.794;6.060;2024-03-07T06:11:07;77.55;;;34.92;;
26718;SDS011;14326;50.794;6.060;2024-03-07T06:13:34;81.45;;;36.28;;
26718;SDS011;14326;50.794;6.060;2024-03-07T06:16:00;79.95;;;35.28;;
26718;SDS011;14326;50.794;6.060;2024-03-07T06:18:30;86.00;;;35.17;;
26718;SDS011;14326;50.794;6.060;2024-03-07T06:20:57;83.72;;;36.15;;
26718;SDS011;14326;50.794;6.060;2024-03-07T06:23:25;82.25;;;35.83;;
26718;SDS011;14326;50.794;6.060;2024-03-07T06:25:53;63.97;;;28.30;;
26718;SDS011;14326;50.794;6.060;2024-03-07T06:28:21;86.45;;;35.38;;
26718;SDS011;14326;50.794;6.060;2024-03-07T06:30:47;82.25;;;35.92;;
26718;SDS011;14326;50.794;6.060;2024-03-07T06:33:14;86.50;;;33.70;;
26718;SDS011;14326;50.794;6.060;2024-03-07T06:35:42;84.82;;;35.50;;
26718;SDS011;14326;50.794;6.060;2024-03-07T06:38:09;80.90;;;32.85;;
26718;SDS011;14326;50.794;6.060;2024-03-07T06:40:37;79.70;;;33.10;;
26718;SDS011;14326;50.794;6.060;2024-03-07T06:43:07;75.00;;;32.45;;
26718;SDS011;14326;50.794;6.060;2024-03-07T06:45:35;72.68;;;31.75;;
26718;SDS011;14326;50.794;6.060;2024-03-07T06:48:03;78.82;;;33.95;;
26718;SDS011;14326;50.794;6.060;2024-03-07T06:50:32;85.05;;;36.90;;
26718;SDS011;14326;50.794;6.060;2024-03-07T06:52:59;82.63;;;35.10;;
26718;SDS011;14326;50.794;6.060;2024-03-07T06:55:25;85.30;;;36.50;;
26718;SDS011;14326;50.794;6.060;2024-03-07T06:57:54;77.88;;;35.38;;
26718;SDS011;14326;50.794;6.060;2024-03-07T07:00:20;67.68;;;32.95;;
26718;SDS011;14326;50.794;6.060;2024-03-07T07:02:48;73.40;;;34.40;;
26718;SDS011;14326;50.794;6.060;2024-03-07T07:05:15;67.18;;;33.17;;
26718;SDS011;14326;50.794;6.060;2024-03-07T07:07:43;67.82;;;32.85;;
26718;SDS011;14326;50.794;6.060;2024-03-07T07:10:10;64.75;;;30.60;;
26718;SDS011;14326;50.794;6.060;2024-03-07T07:12:41;63.88;;;31.98;;
26718;SDS011;14326;50.794;6.060;2024-03-07T07:15:09;60.00;;;29.88;;
26718;SDS011;14326;50.794;6.060;2024-03-07T07:17:37;59.42;;;31.38;;
26718;SDS011;14326;50.794;6.060;2024-03-07T07:20:04;61.90;;;30.25;;
26718;SDS011;14326;50.794;6.060;2024-03-07T07:22:35;58.13;;;28.48;;
26718;SDS011;14326;50.794;6.060;2024-03-07T07:25:02;58.67;;;29.05;;
26718;SDS011;14326;50.794;6.060;2024-03-07T07:27:29;60.42;;;29.25;;
26718;SDS011;14326;50.794;6.060;2024-03-07T07:29:56;57.70;;;28.25;;
26718;SDS011;14326;50.794;6.060;2024-03-07T07:32:24;60.60;;;29.42;;
26718;SDS011;14326;50.794;6.060;2024-03-07T07:34:51;63.33;;;28.55;;
26718;SDS011;14326;50.794;6.060;2024-03-07T07:37:17;61.92;;;30.33;;
26718;SDS011;14326;50.794;6.060;2024-03-07T07:39:44;57.05;;;27.45;;
26718;SDS011;14326;50.794;6.060;2024-03-07T07:42:11;54.75;;;28.60;;
26718;SDS011;14326;50.794;6.060;2024-03-07T07:44:38;59.60;;;29.70;;
26718;SDS011;14326;50.794;6.060;2024-03-07T07:47:04;55.58;;;27.50;;
26718;SDS011;14326;50.794;6.060;2024-03-07T07:49:33;54.30;;;28.40;;
26718;SDS011;14326;50.794;6.060;2024-03-07T07:52:01;61.60;;;28.40;;
26718;SDS011;14326;50.794;6.060;2024-03-07T07:54:27;51.05;;;26.80;;
26718;SDS011;14326;50.794;6.060;2024-03-07T07:56:54;55.15;;;27.48;;
26718;SDS011;14326;50.794;6.060;2024-03-07T07:59:20;62.28;;;29.60;;
26718;SDS011;14326;50.794;6.060;2024-03-07T08:01:47;62.38;;;28.98;;
26718;SDS011;14326;50.794;6.060;2024-03-07T08:04:14;62.30;;;29.58;;
26718;SDS011;14326;50.794;6.060;2024-03-07T08:06:42;63.45;;;29.48;;
26718;SDS011;14326;50.794;6.060;2024-03-07T08:09:09;62.95;;;30.20;;
26718;SDS011;14326;50.794;6.060;2024-03-07T08:11:35;58.00;;;30.10;;
26718;SDS011;14326;50.794;6.060;2024-03-07T08:14:03;68.70;;;32.47;;
26718;SDS011;14326;50.794;6.060;2024-03-07T08:16:31;60.75;;;30.25;;
26718;SDS011;14326;50.794;6.060;2024-03-07T08:18:58;64.63;;;29.75;;
26718;SDS011;14326;50.794;6.060;2024-03-07T08:21:25;60.72;;;29.63;;
26718;SDS011;14326;50.794;6.060;2024-03-07T08:23:53;59.72;;;29.73;;
26718;SDS011;14326;50.794;6.060;2024-03-07T08:26:20;60.72;;;29.40;;
26718;SDS011;14326;50.794;6.060;2024-03-07T08:28:47;60.33;;;29.23;;
26718;SDS011;14326;50.794;6.060;2024-03-07T08:31:13;55.90;;;27.67;;
26718;SDS011;14326;50.794;6.060;2024-03-07T08:33:40;58.35;;;29.50;;
26718;SDS011;14326;50.794;6.060;2024-03-07T08:36:06;57.58;;;29.45;;
26718;SDS011;14326;50.794;6.060;2024-03-07T08:38:35;59.13;;;29.48;;
26718;SDS011;14326;50.794;6.060;2024-03-07T08:41:04;57.03;;;27.58;;
26718;SDS011;14326;50.794;6.060;2024-03-07T08:43:31;59.17;;;29.42;;
26718;SDS011;14326;50.794;6.060;2024-03-07T08:45:58;64.85;;;29.75;;
26718;SDS011;14326;50.794;6.060;2024-03-07T08:48:25;59.78;;;27.70;;
26718;SDS011;14326;50.794;6.060;2024-03-07T08:50:51;63.30;;;27.83;;
26718;SDS011;14326;50.794;6.060;2024-03-07T08:53:18;60.90;;;27.77;;
26718;SDS011;14326;50.794;6.060;2024-03-07T08:55:45;54.88;;;27.58;;
26718;SDS011;14326;50.794;6.060;2024-03-07T08:58:13;63.47;;;28.52;;
26718;SDS011;14326;50.794;6.060;2024-03-07T09:00:39;57.42;;;28.38;;
26718;SDS011;14326;50.794;6.060;2024-03-07T09:03:06;57.08;;;28.60;;
26718;SDS011;14326;50.794;6.060;2024-03-07T09:05:34;52.53;;;26.73;;
26718;SDS011;14326;50.794;6.060;2024-03-07T09:08:01;54.60;;;28.15;;
26718;SDS011;14326;50.794;6.060;2024-03-07T09:10:28;53.90;;;28.50;;
26718;SDS011;14326;50.794;6.060;2024-03-07T09:12:55;53.60;;;27.13;;
26718;SDS011;14326;50.794;6.060;2024-03-07T09:15:23;54.58;;;26.10;;
26718;SDS011;14326;50.794;6.060;2024-03-07T09:17:50;59.50;;;28.90;;
26718;SDS011;14326;50.794;6.060;2024-03-07T09:20:18;56.10;;;27.45;;
26718;SDS011;14326;50.794;6.060;2024-03-07T09:22:46;56.72;;;27.77;;
26718;SDS011;14326;50.794;6.060;2024-03-07T09:25:13;53.72;;;25.85;;
26718;SDS011;14326;50.794;6.060;2024-03-07T09:27:41;55.10;;;26.73;;
26718;SDS011;14326;50.794;6.060;2024-03-07T09:30:08;58.55;;;27.35;;
26718;SDS011;14326;50.794;6.060;2024-03-07T09:32:38;52.10;;;25.98;;
26718;SDS011;14326;50.794;6.060;2024-03-07T09:35:06;51.15;;;24.25;;
26718;SDS011;14326;50.794;6.060;2024-03-07T09:37:36;58.83;;;27.38;;
26718;SDS011;14326;50.794;6.060;2024-03-07T09:40:04;54.92;;;24.98;;
26718;SDS011;14326;50.794;6.060;2024-03-07T09:42:31;50.60;;;24.80;;
26718;SDS011;14326;50.794;6.060;2024-03-07T09:45:00;53.30;;;25.10;;
26718;SDS011;14326;50.794;6.060;2024-03-07T09:47:29;51.97;;;24.25;;
26718;SDS011;14326;50.794;6.060;2024-03-07T09:49:58;51.08;;;24.33;;
26718;SDS011;14326;50.794;6.060;2024-03-07T09:52:25;48.40;;;22.30;;
26718;SDS011;14326;50.794;6.060;2024-03-07T09:54:55;49.20;;;23.75;;
26718;SDS011;14326;50.794;6.060;2024-03-07T09:57:23;46.35;;;23.17;;
26718;SDS011;14326;50.794;6.060;2024-03-07T09:59:50;44.17;;;21.85;;
26718;SDS011;14326;50.794;6.060;2024-03-07T10:02:19;41.45;;;21.58;;
26718;SDS011;14326;50.794;6.060;2024-03-07T10:04:48;45.85;;;21.90;;
26718;SDS011;14326;50.794;6.060;2024-03-07T10:07:18;46.30;;;21.98;;
26718;SDS011;14326;50.794;6.060;2024-03-07T10:09:45;40.95;;;20.50;;
26718;SDS011;14326;50.794;6.060;2024-03-07T10:12:14;46.58;;;21.23;;
26718;SDS011;14326;50.794;6.060;2024-03-07T10:14:47;44.40;;;19.95;;
26718;SDS011;14326;50.794;6.060;2024-03-07T10:17:15;38.35;;;18.60;;
26718;SDS011;14326;50.794;6.060;2024-03-07T10:19:43;37.92;;;19.15;;
26718;SDS011;14326;50.794;6.060;2024-03-07T10:22:13;39.80;;;19.02;;
26718;SDS011;14326;50.794;6.060;2024-03-07T10:24:41;39.10;;;18.75;;
26718;SDS011;14326;50.794;6.060;2024-03-07T10:27:17;40.58;;;19.50;;
26718;SDS011;14326;50.794;6.060;2024-03-07T10:29:45;39.78;;;19.58;;
26718;SDS011;14326;50.794;6.060;2024-03-07T10:32:12;39.72;;;19.67;;
26718;SDS011;14326;50.794;6.060;2024-03-07T10:34:40;44.55;;;20.10;;
26718;SDS011;14326;50.794;6.060;2024-03-07T10:37:11;40.25;;;19.30;;
26718;SDS011;14326;50.794;6.060;2024-03-07T10:39:42;38.13;;;18.80;;
26718;SDS011;14326;50.794;6.060;2024-03-07T10:44:42;42.13;;;19.73;;
26718;SDS011;14326;50.794;6.060;2024-03-07T10:47:11;40.17;;;19.85;;
26718;SDS011;14326;50.794;6.060;2024-03-07T10:49:46;36.65;;;19.05;;
26718;SDS011;14326;50.794;6.060;2024-03-07T10:52:40;39.65;;;19.75;;
26718;SDS011;14326;50.794;6.060;2024-03-07T10:55:18;39.25;;;18.55;;
26718;SDS011;14326;50.794;6.060;2024-03-07T10:57:56;38.05;;;18.77;;
26718;SDS011;14326;50.794;6.060;2024-03-07T11:00:29;38.92;;;18.55;;
26718;SDS011;14326;50.794;6.060;2024-03-07T11:03:01;41.35;;;18.90;;
26718;SDS011;14326;50.794;6.060;2024-03-07T11:05:32;39.25;;;19.17;;
26718;SDS011;14326;50.794;6.060;2024-03-07T11:07:59;37.95;;;17.63;;
26718;SDS011;14326;50.794;6.060;2024-03-07T11:10:30;36.30;;;19.02;;
26718;SDS011;14326;50.794;6.060;2024-03-07T11:12:57;36.65;;;18.52;;
26718;SDS011;14326;50.794;6.060;2024-03-07T11:15:25;36.35;;;18.05;;
26718;SDS011;14326;50.794;6.060;2024-03-07T11:17:54;35.55;;;16.77;;
26718;SDS011;14326;50.794;6.060;2024-03-07T11:20:21;38.17;;;19.17;;
26718;SDS011;14326;50.794;6.060;2024-03-07T11:22:49;36.10;;;18.83;;
26718;SDS011;14326;50.794;6.060;2024-03-07T11:25:17;36.53;;;18.00;;
26718;SDS011;14326;50.794;6.060;2024-03-07T11:27:52;34.40;;;16.10;;
26718;SDS011;14326;50.794;6.060;2024-03-07T11:30:20;40.97;;;19.30;;
26718;SDS011;14326;50.794;6.060;2024-03-07T11:32:48;36.25;;;16.48;;
26718;SDS011;14326;50.794;6.060;2024-03-07T11:35:18;35.22;;;16.70;;
26718;SDS011;14326;50.794;6.060;2024-03-07T11:37:55;37.28;;;16.83;;
26718;SDS011;14326;50.794;6.060;2024-03-07T11:43:15;35.75;;;15.75;;
26718;SDS011;14326;50.794;6.060;2024-03-07T11:45:42;40.25;;;17.40;;
26718;SDS011;14326;50.794;6.060;2024-03-07T11:48:17;33.42;;;16.10;;
26718;SDS011;14326;50.794;6.060;2024-03-07T11:50:45;35.33;;;15.70;;
26718;SDS011;14326;50.794;6.060;2024-03-07T11:53:12;38.80;;;17.40;;
26718;SDS011;14326;50.794;6.060;2024-03-07T11:55:39;37.13;;;16.45;;
26718;SDS011;14326;50.794;6.060;2024-03-07T11:58:10;34.92;;;16.92;;
26718;SDS011;14326;50.794;6.060;2024-03-07T12:00:41;35.58;;;16.50;;
26718;SDS011;14326;50.794;6.060;2024-03-07T12:03:10;37.83;;;17.88;;
26718;SDS011;14326;50.794;6.060;2024-03-07T12:05:40;35.33;;;16.80;;
26718;SDS011;14326;50.794;6.060;2024-03-07T12:08:08;36.70;;;16.52;;
26718;SDS011;14326;50.794;6.060;2024-03-07T12:10:36;38.05;;;17.33;;
26718;SDS011;14326;50.794;6.060;2024-03-07T12:13:04;33.92;;;15.52;;
26718;SDS011;14326;50.794;6.060;2024-03-07T12:15:31;34.53;;;16.38;;
26718;SDS011;14326;50.794;6.060;2024-03-07T12:18:01;31.67;;;15.55;;
26718;SDS011;14326;50.794;6.060;2024-03-07T12:20:33;35.33;;;16.33;;
26718;SDS011;14326;50.794;6.060;2024-03-07T12:23:01;36.42;;;15.90;;
26718;SDS011;14326;50.794;6.060;2024-03-07T12:25:30;35.78;;;17.48;;
26718;SDS011;14326;50.794;6.060;2024-03-07T12:28:04;32.35;;;15.75;;
26718;SDS011;14326;50.794;6.060;2024-03-07T12:30:36;35.40;;;16.20;;
26718;SDS011;14326;50.794;6.060;2024-03-07T12:33:16;36.78;;;16.85;;
26718;SDS011;14326;50.794;6.060;2024-03-07T12:35:43;33.70;;;15.48;;
26718;SDS011;14326;50.794;6.060;2024-03-07T12:38:10;35.55;;;15.75;;
26718;SDS011;14326;50.794;6.060;2024-03-07T12:40:40;31.75;;;14.30;;
26718;SDS011;14326;50.794;6.060;2024-03-07T12:43:12;34.22;;;16.92;;
26718;SDS011;14326;50.794;6.060;2024-03-07T12:45:42;36.55;;;16.40;;
26718;SDS011;14326;50.794;6.060;2024-03-07T12:48:10;34.67;;;16.58;;
26718;SDS011;14326;50.794;6.060;2024-03-07T12:50:40;33.97;;;15.43;;
26718;SDS011;14326;50.794;6.060;2024-03-07T12:53:07;34.67;;;17.38;;
26718;SDS011;14326;50.794;6.060;2024-03-07T12:55:37;36.75;;;16.98;;
26718;SDS011;14326;50.794;6.060;2024-03-07T12:58:06;33.80;;;16.25;;
26718;SDS011;14326;50.794;6.060;2024-03-07T13:00:34;33.50;;;16.17;;
26718;SDS011;14326;50.794;6.060;2024-03-07T13:03:01;34.33;;;15.95;;
26718;SDS011;14326;50.794;6.060;2024-03-07T13:05:28;35.63;;;16.10;;
26718;SDS011;14326;50.794;6.060;2024-03-07T13:07:56;33.70;;;16.77;;
26718;SDS011;14326;50.794;6.060;2024-03-07T13:10:22;34.70;;;16.52;;
26718;SDS011;14326;50.794;6.060;2024-03-07T13:12:49;29.23;;;15.13;;
26718;SDS011;14326;50.794;6.060;2024-03-07T13:15:18;33.77;;;16.10;;
26718;SDS011;14326;50.794;6.060;2024-03-07T13:17:47;31.10;;;15.32;;
26718;SDS011;14326;50.794;6.060;2024-03-07T13:20:18;32.65;;;15.82;;
26718;SDS011;14326;50.794;6.060;2024-03-07T13:22:48;32.30;;;14.80;;
26718;SDS011;14326;50.794;6.060;2024-03-07T13:25:16;30.85;;;15.05;;
26718;SDS011;14326;50.794;6.060;2024-03-07T13:27:51;30.13;;;13.05;;
26718;SDS011;14326;50.794;6.060;2024-03-07T13:30:21;29.90;;;14.18;;
26718;SDS011;14326;50.794;6.060;2024-03-07T13:32:54;32.15;;;15.48;;
26718;SDS011;14326;50.794;6.060;2024-03-07T13:35:21;30.38;;;14.25;;
26718;SDS011;14326;50.794;6.060;2024-03-07T13:37:48;30.45;;;14.20;;
26718;SDS011;14326;50.794;6.060;2024-03-07T13:40:17;31.25;;;14.65;;
26718;SDS011;14326;50.794;6.060;2024-03-07T13:42:50;29.15;;;13.07;;
26718;SDS011;14326;50.794;6.060;2024-03-07T13:45:18;29.77;;;13.55;;
26718;SDS011;14326;50.794;6.060;2024-03-07T13:47:47;33.42;;;16.00;;
26718;SDS011;14326;50.794;6.060;2024-03-07T13:50:14;30.73;;;14.40;;
26718;SDS011;14326;50.794;6.060;2024-03-07T13:52:41;33.78;;;15.00;;
26718;SDS011;14326;50.794;6.060;2024-03-07T13:55:30;28.70;;;13.20;;
26718;SDS011;14326;50.794;6.060;2024-03-07T13:58:01;31.10;;;14.05;;
26718;SDS011;14326;50.794;6.060;2024-03-07T14:00:41;31.05;;;14.43;;
26718;SDS011;14326;50.794;6.060;2024-03-07T14:03:28;31.65;;;14.82;;
26718;SDS011;14326;50.794;6.060;2024-03-07T14:06:11;28.55;;;12.40;;
26718;SDS011;14326;50.794;6.060;2024-03-07T14:09:04;29.30;;;13.43;;
26718;SDS011;14326;50.794;6.060;2024-03-07T14:18:11;29.95;;;12.95;;
26718;SDS011;14326;50.794;6.060;2024-03-07T14:21:03;27.52;;;13.35;;
26718;SDS011;14326;50.794;6.060;2024-03-07T14:23:42;29.65;;;13.23;;
26718;SDS011;14326;50.794;6.060;2024-03-07T14:29:54;26.67;;;12.70;;
26718;SDS011;14326;50.794;6.060;2024-03-07T14:32:45;27.35;;;12.73;;
26718;SDS011;14326;50.794;6.060;2024-03-07T14:35:14;25.23;;;12.27;;
26718;SDS011;14326;50.794;6.060;2024-03-07T14:37:49;30.35;;;13.70;;
26718;SDS011;14326;50.794;6.060;2024-03-07T14:40:20;27.88;;;12.45;;
26718;SDS011;14326;50.794;6.060;2024-03-07T14:42:51;28.17;;;12.50;;
26718;SDS011;14326;50.794;6.060;2024-03-07T14:45:23;26.35;;;11.93;;
26718;SDS011;14326;50.794;6.060;2024-03-07T14:47:55;23.77;;;9.85;;
26718;SDS011;14326;50.794;6.060;2024-03-07T14:50:22;24.25;;;10.25;;